Time;durP1;ratioP1;P1;durP2;ratioP2;P2;SDS_P1;SDS_P2;PMS_P1;PMS_P2;Temp;Humidity;BMP_temperature;BMP_pressure;BME280_temperature;BME280_humidity;BME280_pressure;Samples;Min_cycle;Max_cycle;Signal;HPM_P1;HPM_P2
2022/09/06 00:00:28;;;;;;;6.45;3.83;;;20.40;96.10;;;;;;5109133;28;20123;-67
2022/09/06 00:02:54;;;;;;;4.38;3.70;;;20.40;96.10;;;;;;5118299;27;20039;-68
2022/09/06 00:05:20;;;;;;;6.70;3.63;;;20.40;96.30;;;;;;5114748;27;20039;-65
2022/09/06 00:07:46;;;;;;;5.93;3.72;;;20.40;96.30;;;;;;5107504;28;20470;-66
2022/09/06 00:10:12;;;;;;;4.55;3.13;;;20.40;96.30;;;;;;5109912;28;20047;-65
2022/09/06 00:12:38;;;;;;;6.47;3.50;;;20.30;96.40;;;;;;5107506;28;20043;-67
2022/09/06 00:15:04;;;;;;;4.45;3.20;;;20.30;96.60;;;;;;5102843;27;20118;-66
2022/09/06 00:17:32;;;;;;;5.18;3.50;;;20.30;96.60;;;;;;5122411;27;20044;-66
2022/09/06 00:19:57;;;;;;;5.53;3.28;;;20.20;96.70;;;;;;5115784;27;20456;-67
2022/09/06 00:22:23;;;;;;;3.65;3.15;;;20.20;96.70;;;;;;5105384;28;20131;-66
2022/09/06 00:24:48;;;;;;;4.30;3.90;;;20.20;96.70;;;;;;5108757;27;20036;-64
2022/09/06 00:27:14;;;;;;;3.60;3.30;;;20.20;96.90;;;;;;5128911;27;20049;-63
2022/09/06 00:29:40;;;;;;;5.03;3.33;;;20.20;97.00;;;;;;5111452;27;20389;-65
2022/09/06 00:32:05;;;;;;;4.72;3.90;;;20.10;97.00;;;;;;5112933;27;20050;-66
2022/09/06 00:34:31;;;;;;;5.40;3.22;;;20.10;97.20;;;;;;5116958;27;20518;-67
2022/09/06 00:36:57;;;;;;;3.80;3.28;;;20.10;97.30;;;;;;5113842;27;20047;-63
2022/09/06 00:39:22;;;;;;;7.10;3.70;;;20.10;97.40;;;;;;5113358;27;20541;-67
2022/09/06 00:41:48;;;;;;;4.22;3.80;;;20.10;97.50;;;;;;5121357;27;20038;-65
2022/09/06 00:44:14;;;;;;;6.25;3.83;;;20.00;97.50;;;;;;5109705;27;20044;-66
2022/09/06 00:46:44;;;;;;;6.85;3.90;;;19.90;97.60;;;;;;5105618;28;20056;-65
2022/09/06 00:49:28;;;;;;;7.07;3.80;;;19.90;97.70;;;;;;5111250;27;20063;-65
2022/09/06 00:51:57;;;;;;;7.28;3.90;;;19.90;97.90;;;;;;5098640;28;20054;-65
2022/09/06 00:54:24;;;;;;;5.00;3.60;;;19.90;97.80;;;;;;5110237;28;20032;-64
2022/09/06 00:56:50;;;;;;;5.03;3.85;;;19.90;97.80;;;;;;5111950;27;20046;-64
2022/09/06 00:59:16;;;;;;;7.50;4.40;;;19.80;97.90;;;;;;5110599;27;20047;-66
2022/09/06 01:01:42;;;;;;;7.53;4.28;;;19.80;98.30;;;;;;5089903;28;20078;-65
2022/09/06 01:04:08;;;;;;;9.98;3.90;;;19.70;98.00;;;;;;5104557;27;20114;-65
2022/09/06 01:06:39;;;;;;;8.85;4.72;;;19.70;98.00;;;;;;5115532;27;20401;-66
2022/09/06 01:09:18;;;;;;;6.25;4.07;;;19.60;98.00;;;;;;5108396;27;20042;-65
2022/09/06 01:12:17;;;;;;;4.50;3.58;;;19.60;98.00;;;;;;5106177;27;20119;-66
2022/09/06 01:14:57;;;;;;;8.30;4.78;;;19.60;98.10;;;;;;5087202;28;20397;-65
2022/09/06 01:18:27;;;;;;;5.07;3.90;;;19.50;98.20;;;;;;5109658;28;20035;-65
2022/09/06 01:21:26;;;;;;;4.68;3.95;;;19.60;98.10;;;;;;5037081;28;20037;-66
2022/09/06 01:24:39;;;;;;;4.50;4.05;;;19.60;98.50;;;;;;5044455;28;20088;-66
2022/09/06 01:27:13;;;;;;;5.20;4.20;;;19.60;98.70;;;;;;5006747;28;20057;-63
2022/09/06 01:29:47;;;;;;;7.07;4.20;;;19.50;98.30;;;;;;5007570;28;20052;-65
2022/09/06 01:32:21;;;;;;;4.28;3.80;;;19.60;98.60;;;;;;5033390;28;20159;-64
2022/09/06 01:34:52;;;;;;;4.40;4.00;;;19.60;98.70;;;;;;5039779;28;20087;-65
2022/09/06 01:37:19;;;;;;;6.30;4.20;;;19.60;98.70;;;;;;5026697;28;20182;-65
2022/09/06 01:39:45;;;;;;;5.45;3.80;;;19.60;98.90;;;;;;5030482;28;20091;-64
2022/09/06 01:42:26;;;;;;;4.80;3.63;;;19.50;98.90;;;;;;5031795;28;20045;-66
2022/09/06 01:44:59;;;;;;;5.18;4.05;;;19.50;99.20;;;;;;5029983;28;20875;-66
2022/09/06 01:47:39;;;;;;;6.32;4.10;;;19.50;99.30;;;;;;5038579;28;20468;-64
2022/09/06 01:50:27;;;;;;;4.75;3.80;;;19.50;99.80;;;;;;5025228;28;20495;-64
2022/09/06 01:53:08;;;;;;;4.88;3.90;;;19.50;99.90;;;;;;5102509;28;20427;-65
2022/09/06 01:55:49;;;;;;;5.70;3.95;;;19.50;99.90;;;;;;5120298;27;20039;-65
2022/09/06 01:58:34;;;;;;;6.03;3.92;;;19.50;99.90;;;;;;5107809;28;20449;-65
2022/09/06 02:01:20;;;;;;;4.78;4.00;;;19.50;99.70;;;;;;5091319;28;20031;-64
2022/09/06 02:04:13;;;;;;;5.85;3.97;;;19.50;99.70;;;;;;5104639;28;20541;-64
2022/09/06 02:06:46;;;;;;;5.43;4.25;;;19.50;99.60;;;;;;5107033;28;20035;-64
2022/09/06 02:09:18;;;;;;;6.75;4.55;;;19.50;99.40;;;;;;5103249;28;20083;-68
2022/09/06 02:11:56;;;;;;;7.70;4.33;;;19.40;99.20;;;;;;5104905;28;20529;-65
2022/09/06 02:14:36;;;;;;;6.57;4.20;;;19.50;98.90;;;;;;5104572;28;20047;-66
2022/09/06 02:17:04;;;;;;;6.43;4.43;;;19.50;98.60;;;;;;5107301;28;20035;-65
2022/09/06 02:19:30;;;;;;;5.07;4.10;;;19.50;98.50;;;;;;5099762;28;20556;-66
2022/09/06 02:21:57;;;;;;;7.13;4.10;;;19.50;98.30;;;;;;5108493;27;20146;-65
2022/09/06 02:24:27;;;;;;;8.77;4.55;;;19.50;98.20;;;;;;5100620;27;20062;-66
2022/09/06 02:26:52;;;;;;;5.78;4.20;;;19.50;98.30;;;;;;5109995;28;20039;-64
2022/09/06 02:29:18;;;;;;;5.18;4.30;;;19.50;98.00;;;;;;5105302;28;20083;-66
2022/09/06 02:31:49;;;;;;;5.97;4.65;;;19.50;98.00;;;;;;5130350;27;20039;-67
2022/09/06 02:34:17;;;;;;;12.45;4.45;;;19.50;97.80;;;;;;5099295;27;20074;-65
2022/09/06 02:36:43;;;;;;;5.88;4.45;;;19.50;97.80;;;;;;5099109;28;20523;-65
2022/09/06 02:39:09;;;;;;;7.25;4.68;;;19.50;97.80;;;;;;5110510;27;20127;-64
2022/09/06 02:41:36;;;;;;;5.63;4.20;;;19.50;97.90;;;;;;5099389;28;20032;-64
2022/09/06 02:44:02;;;;;;;8.20;4.40;;;19.60;98.00;;;;;;5101481;28;20130;-65
2022/09/06 02:46:27;;;;;;;5.90;3.80;;;19.60;98.00;;;;;;5126591;27;20152;-64
2022/09/06 02:48:53;;;;;;;4.25;3.78;;;19.50;98.10;;;;;;5101844;28;20075;-65
2022/09/06 02:51:19;;;;;;;8.85;4.60;;;19.50;98.20;;;;;;5101246;28;20050;-66
2022/09/06 02:53:45;;;;;;;8.60;4.40;;;19.50;98.30;;;;;;5106181;28;20042;-66
2022/09/06 02:56:11;;;;;;;5.25;4.28;;;19.50;98.30;;;;;;5104382;28;20122;-66
2022/09/06 02:58:37;;;;;;;5.75;4.30;;;19.50;98.30;;;;;;5113221;28;20438;-64
2022/09/06 03:01:03;;;;;;;7.97;4.95;;;19.50;98.50;;;;;;5101977;28;20020;-67
2022/09/06 03:03:28;;;;;;;7.15;4.47;;;19.40;98.50;;;;;;5105803;28;20039;-68
2022/09/06 03:05:54;;;;;;;4.68;4.20;;;19.40;98.40;;;;;;5107473;28;20504;-66
2022/09/06 03:08:24;;;;;;;7.28;4.50;;;19.40;98.40;;;;;;5115847;28;20043;-66
2022/09/06 03:10:55;;;;;;;6.40;4.60;;;19.40;98.30;;;;;;5119890;28;20119;-65
2022/09/06 03:13:21;;;;;;;5.18;4.50;;;19.40;98.50;;;;;;5105243;28;20745;-67
2022/09/06 03:15:56;;;;;;;7.68;4.50;;;19.40;98.30;;;;;;5103137;28;20067;-64
2022/09/06 03:18:23;;;;;;;6.05;4.30;;;19.40;98.10;;;;;;5107252;28;20096;-66
2022/09/06 03:20:50;;;;;;;7.55;4.15;;;19.40;98.00;;;;;;5108457;28;20050;-66
2022/09/06 03:23:22;;;;;;;5.30;3.95;;;19.40;98.00;;;;;;5108714;28;20432;-65
2022/09/06 03:25:48;;;;;;;5.25;4.40;;;19.30;97.90;;;;;;5107414;28;20123;-66
2022/09/06 03:28:14;;;;;;;4.28;3.88;;;19.30;98.10;;;;;;5105293;28;20051;-63
2022/09/06 03:30:44;;;;;;;6.35;4.03;;;19.30;98.10;;;;;;5109057;28;20031;-65
2022/09/06 03:33:09;;;;;;;4.32;3.80;;;19.30;98.10;;;;;;5111779;28;20486;-64
2022/09/06 03:35:35;;;;;;;5.55;4.40;;;19.30;98.10;;;;;;5091461;28;20034;-64
2022/09/06 03:38:01;;;;;;;5.78;4.60;;;19.30;98.50;;;;;;5089515;28;20039;-66
2022/09/06 03:40:26;;;;;;;7.15;5.05;;;19.20;98.50;;;;;;5109098;28;20039;-66
2022/09/06 03:42:52;;;;;;;6.50;4.70;;;19.20;98.40;;;;;;5108614;28;20051;-65
2022/09/06 03:45:18;;;;;;;6.60;4.45;;;19.20;98.30;;;;;;5105318;28;20054;-65
2022/09/06 03:47:43;;;;;;;5.97;4.68;;;19.20;98.30;;;;;;5106625;28;20402;-66
2022/09/06 03:50:09;;;;;;;7.82;4.82;;;19.20;98.30;;;;;;5115927;28;20044;-65
2022/09/06 03:52:35;;;;;;;5.55;5.03;;;19.20;98.30;;;;;;5119252;28;20061;-65
2022/09/06 03:55:01;;;;;;;7.63;5.43;;;19.20;98.30;;;;;;5111653;27;20097;-64
2022/09/06 03:57:27;;;;;;;12.57;5.38;;;19.10;98.40;;;;;;5113196;28;20038;-65
2022/09/06 03:59:52;;;;;;;7.55;5.00;;;19.10;98.50;;;;;;5106581;28;20065;-64
2022/09/06 04:02:18;;;;;;;7.32;5.32;;;19.10;98.60;;;;;;5124116;27;20055;-67
2022/09/06 04:04:44;;;;;;;7.18;5.50;;;19.10;98.80;;;;;;5105695;28;20047;-65
2022/09/06 04:07:09;;;;;;;7.57;5.70;;;19.00;99.00;;;;;;5108916;28;20050;-65
2022/09/06 04:09:35;;;;;;;8.48;5.72;;;19.00;99.20;;;;;;5105620;28;20042;-67
2022/09/06 04:12:01;;;;;;;9.32;6.07;;;19.00;99.40;;;;;;5112041;28;20035;-65
2022/09/06 04:14:27;;;;;;;12.57;6.55;;;18.90;99.60;;;;;;5111661;27;20062;-67
2022/09/06 04:16:52;;;;;;;6.85;6.20;;;18.80;99.90;;;;;;5103783;28;20481;-66
2022/09/06 04:19:18;;;;;;;7.68;6.20;;;18.80;99.90;;;;;;5109613;28;20051;-64
2022/09/06 04:21:43;;;;;;;6.63;5.93;;;18.80;99.90;;;;;;5095567;28;20059;-65
2022/09/06 04:24:09;;;;;;;7.03;6.30;;;18.70;99.90;;;;;;5102786;27;20036;-65
2022/09/06 04:26:35;;;;;;;8.40;6.28;;;18.70;99.90;;;;;;5091505;28;20077;-68
2022/09/06 04:29:00;;;;;;;6.88;6.28;;;18.70;99.90;;;;;;5110479;27;20408;-65
2022/09/06 04:31:26;;;;;;;7.10;5.93;;;18.70;99.90;;;;;;5106479;28;20119;-65
2022/09/06 04:33:52;;;;;;;8.82;6.28;;;18.60;99.90;;;;;;5109263;28;20526;-65
2022/09/06 04:36:17;;;;;;;9.32;6.38;;;18.60;99.90;;;;;;5104026;28;20051;-67
2022/09/06 04:38:44;;;;;;;7.65;6.22;;;18.50;99.90;;;;;;5109194;28;20139;-66
2022/09/06 04:41:12;;;;;;;10.82;7.30;;;18.50;99.90;;;;;;5117345;27;20039;-65
2022/09/06 04:43:37;;;;;;;9.30;7.13;;;18.50;99.90;;;;;;5109824;28;20098;-68
2022/09/06 04:46:18;;;;;;;8.20;7.45;;;18.50;99.90;;;;;;5107469;28;20087;-64
2022/09/06 04:48:43;;;;;;;7.70;6.90;;;18.40;99.90;;;;;;5105487;28;20090;-65
2022/09/06 04:51:09;;;;;;;8.95;7.05;;;18.30;99.90;;;;;;5098154;28;20071;-64
2022/09/06 04:53:35;;;;;;;8.20;7.47;;;18.30;99.90;;;;;;5123310;27;20050;-64
2022/09/06 04:56:00;;;;;;;9.43;7.20;;;18.20;99.90;;;;;;5098018;28;20055;-68
2022/09/06 04:58:26;;;;;;;11.07;7.53;;;18.20;99.90;;;;;;5107251;28;20097;-64
2022/09/06 05:00:52;;;;;;;7.88;7.05;;;18.20;99.90;;;;;;5109280;28;20419;-64
2022/09/06 05:03:17;;;;;;;8.50;7.70;;;18.20;99.90;;;;;;5109525;27;20051;-66
2022/09/06 05:05:43;;;;;;;8.32;7.60;;;18.20;99.90;;;;;;5108875;28;20039;-65
2022/09/06 05:08:08;;;;;;;8.85;7.97;;;18.10;99.90;;;;;;5106218;28;20050;-64
2022/09/06 05:10:34;;;;;;;8.73;7.47;;;18.10;99.90;;;;;;5108791;28;20047;-65
2022/09/06 05:13:00;;;;;;;9.95;7.45;;;18.00;99.90;;;;;;5106986;28;20067;-67
2022/09/06 05:15:25;;;;;;;8.90;8.10;;;18.00;99.90;;;;;;5107121;28;20405;-66
2022/09/06 05:17:51;;;;;;;9.80;7.85;;;18.00;99.90;;;;;;5120582;27;20032;-64
2022/09/06 05:20:17;;;;;;;9.35;8.27;;;17.90;99.90;;;;;;5113192;27;20048;-66
2022/09/06 05:22:42;;;;;;;13.35;8.85;;;17.90;99.90;;;;;;5107906;28;20039;-66
2022/09/06 05:25:09;;;;;;;11.88;8.48;;;17.80;99.90;;;;;;5107966;28;20142;-67
2022/09/06 05:27:35;;;;;;;12.88;9.10;;;17.80;99.90;;;;;;5108310;28;20045;-66
2022/09/06 05:30:02;;;;;;;9.32;8.43;;;17.80;99.90;;;;;;5119096;27;20469;-63
2022/09/06 05:32:28;;;;;;;9.48;8.55;;;17.80;99.90;;;;;;5108192;28;20040;-66
2022/09/06 05:34:53;;;;;;;10.32;8.38;;;17.80;99.90;;;;;;5111594;27;20466;-65
2022/09/06 05:37:19;;;;;;;9.45;8.55;;;17.80;99.90;;;;;;5117443;27;20180;-67
2022/09/06 05:39:44;;;;;;;9.23;8.38;;;17.80;99.90;;;;;;5121015;27;20040;-66
2022/09/06 05:42:10;;;;;;;10.52;8.65;;;17.80;99.90;;;;;;5100582;28;20036;-64
2022/09/06 05:44:36;;;;;;;9.50;8.57;;;17.80;99.90;;;;;;5119130;27;20052;-67
2022/09/06 05:47:03;;;;;;;9.98;9.07;;;17.80;99.90;;;;;;5109388;28;20043;-68
2022/09/06 05:49:29;;;;;;;9.25;8.32;;;17.80;99.90;;;;;;5130028;27;20101;-64
2022/09/06 05:51:56;;;;;;;9.75;8.75;;;17.80;99.90;;;;;;5101573;27;20035;-67
2022/09/06 05:54:22;;;;;;;11.70;8.80;;;17.90;99.90;;;;;;5101162;27;20110;-65
2022/09/06 05:56:48;;;;;;;9.68;8.68;;;17.90;99.90;;;;;;5099421;28;20131;-69
2022/09/06 05:59:13;;;;;;;10.45;8.57;;;17.90;99.90;;;;;;5102971;28;20498;-64
2022/09/06 06:01:51;;;;;;;12.85;9.52;;;17.90;99.90;;;;;;5096408;28;20107;-66
2022/09/06 06:04:18;;;;;;;10.68;9.30;;;17.80;99.90;;;;;;5101158;28;20035;-64
2022/09/06 06:06:45;;;;;;;9.57;8.45;;;17.80;99.90;;;;;;5106591;28;20401;-64
2022/09/06 06:09:12;;;;;;;11.95;9.05;;;17.80;99.90;;;;;;5115942;27;20124;-67
2022/09/06 06:11:38;;;;;;;10.27;9.27;;;17.80;99.90;;;;;;5109459;28;20035;-67
2022/09/06 06:14:04;;;;;;;11.20;9.32;;;17.80;99.90;;;;;;5126389;27;20049;-68
2022/09/06 06:16:30;;;;;;;10.50;9.35;;;17.70;99.90;;;;;;5108805;28;20118;-64
2022/09/06 06:18:56;;;;;;;10.20;9.23;;;17.70;99.90;;;;;;5104541;28;20710;-67
2022/09/06 06:21:30;;;;;;;11.35;9.38;;;17.70;99.90;;;;;;5108135;28;20045;-66
2022/09/06 06:24:04;;;;;;;11.65;10.55;;;17.70;99.90;;;;;;5107925;28;20541;-65
2022/09/06 06:26:34;;;;;;;11.43;9.50;;;17.70;99.90;;;;;;5127437;27;20050;-68
2022/09/06 06:29:01;;;;;;;11.68;9.65;;;17.70;99.90;;;;;;5130038;27;20035;-66
2022/09/06 06:31:31;;;;;;;10.45;9.52;;;17.70;99.90;;;;;;5107942;27;20118;-67
2022/09/06 06:33:57;;;;;;;14.73;9.98;;;17.80;99.90;;;;;;5109072;28;20032;-67
2022/09/06 06:36:25;;;;;;;12.82;10.77;;;17.80;99.90;;;;;;5126352;27;20425;-67
2022/09/06 06:38:53;;;;;;;11.63;10.45;;;17.80;99.90;;;;;;5105347;28;20044;-68
2022/09/06 06:41:22;;;;;;;11.57;10.45;;;17.90;99.90;;;;;;5116711;27;20546;-66
2022/09/06 06:43:53;;;;;;;11.68;10.48;;;17.90;99.90;;;;;;5117432;27;20042;-66
2022/09/06 06:46:20;;;;;;;11.63;9.82;;;18.00;99.90;;;;;;5115101;27;20386;-65
2022/09/06 06:48:46;;;;;;;10.85;9.80;;;18.00;99.90;;;;;;5106667;28;20055;-67
2022/09/06 06:51:17;;;;;;;11.00;9.88;;;18.10;99.90;;;;;;5112095;27;20039;-66
2022/09/06 06:53:44;;;;;;;11.52;10.23;;;18.10;99.90;;;;;;5130814;27;20038;-66
2022/09/06 06:56:15;;;;;;;12.15;10.88;;;18.10;99.90;;;;;;5130059;27;20401;-66
2022/09/06 06:58:41;;;;;;;13.63;10.85;;;18.10;99.90;;;;;;5130341;28;20039;-67
2022/09/06 07:01:08;;;;;;;11.90;10.70;;;18.20;99.90;;;;;;5129951;27;20100;-65
2022/09/06 07:03:35;;;;;;;11.27;10.18;;;18.20;99.90;;;;;;5130366;28;20075;-65
2022/09/06 07:06:04;;;;;;;13.15;11.75;;;18.30;99.90;;;;;;5130394;28;20046;-64
2022/09/06 07:08:29;;;;;;;11.48;10.25;;;18.40;99.90;;;;;;5131745;27;20107;-65
2022/09/06 07:10:55;;;;;;;11.48;10.40;;;18.60;99.90;;;;;;5130120;28;20118;-65
2022/09/06 07:13:21;;;;;;;11.80;10.70;;;18.90;99.90;;;;;;5130359;28;20096;-65
2022/09/06 07:15:46;;;;;;;11.07;10.00;;;19.20;99.90;;;;;;5112408;28;20047;-65
2022/09/06 07:18:15;;;;;;;11.10;9.93;;;19.30;99.90;;;;;;5129946;27;20498;-68
2022/09/06 07:20:40;;;;;;;12.40;11.20;;;19.50;99.90;;;;;;5130111;28;20032;-66
2022/09/06 07:23:06;;;;;;;10.85;9.80;;;19.80;99.90;;;;;;5129870;27;20504;-67
2022/09/06 07:25:32;;;;;;;10.98;9.88;;;20.00;99.90;;;;;;5130193;28;20600;-66
2022/09/06 07:28:05;;;;;;;14.63;10.05;;;20.30;99.90;;;;;;5132241;27;20097;-66
2022/09/06 07:30:36;;;;;;;12.48;11.07;;;20.50;99.90;;;;;;5117243;27;20084;-65
2022/09/06 07:33:04;;;;;;;13.00;10.70;;;20.70;99.90;;;;;;5134531;27;20370;-67
2022/09/06 07:35:30;;;;;;;10.52;9.63;;;20.80;99.90;;;;;;5135523;27;20046;-64
2022/09/06 07:37:57;;;;;;;12.75;11.43;;;21.00;99.90;;;;;;5126398;27;20462;-66
2022/09/06 07:40:25;;;;;;;11.23;10.25;;;21.10;99.90;;;;;;5133227;27;20091;-63
2022/09/06 07:42:51;;;;;;;12.38;11.00;;;21.30;99.90;;;;;;5134198;27;20031;-64
2022/09/06 07:45:17;;;;;;;11.43;10.32;;;21.50;99.90;;;;;;5133571;27;20078;-66
2022/09/06 07:47:44;;;;;;;11.45;10.25;;;21.40;99.90;;;;;;5133857;27;20118;-67
2022/09/06 07:50:10;;;;;;;13.38;11.95;;;21.60;99.90;;;;;;5133542;27;20050;-64
2022/09/06 07:52:35;;;;;;;12.45;11.18;;;21.70;99.90;;;;;;5133937;27;20043;-65
2022/09/06 07:55:01;;;;;;;11.85;10.75;;;21.80;99.90;;;;;;5134032;27;20095;-63
2022/09/06 07:57:26;;;;;;;12.45;10.23;;;22.00;99.90;;;;;;5133539;27;20039;-66
2022/09/06 07:59:52;;;;;;;12.25;11.02;;;22.30;99.90;;;;;;5133736;27;20043;-65
2022/09/06 08:02:18;;;;;;;12.85;11.65;;;22.40;99.90;;;;;;5133354;27;20389;-66
2022/09/06 08:04:44;;;;;;;13.35;12.02;;;22.50;99.90;;;;;;5133864;27;20043;-66
2022/09/06 08:07:10;;;;;;;12.57;11.43;;;22.50;99.90;;;;;;5133203;27;20039;-66
2022/09/06 08:09:35;;;;;;;13.93;12.60;;;22.50;99.90;;;;;;5133431;27;20470;-68
2022/09/06 08:12:05;;;;;;;12.70;11.50;;;22.50;99.90;;;;;;5133783;27;20424;-67
2022/09/06 08:14:32;;;;;;;13.25;11.88;;;22.50;99.90;;;;;;5133316;27;20047;-67
2022/09/06 08:16:57;;;;;;;15.88;12.13;;;22.60;99.90;;;;;;5133436;27;20062;-65
2022/09/06 08:19:23;;;;;;;13.88;12.57;;;22.60;99.90;;;;;;5132909;27;20089;-65
2022/09/06 08:21:52;;;;;;;12.15;11.05;;;22.50;99.90;;;;;;5133018;27;20493;-64
2022/09/06 08:24:18;;;;;;;12.15;11.15;;;22.70;99.90;;;;;;5133005;27;20054;-65
2022/09/06 08:26:43;;;;;;;9.95;9.07;;;22.70;99.90;;;;;;5133018;27;20057;-65
2022/09/06 08:29:11;;;;;;;11.27;9.95;;;22.90;99.90;;;;;;5133060;27;20092;-66
2022/09/06 08:31:42;;;;;;;11.55;10.35;;;23.20;99.90;;;;;;5132992;27;20443;-66
2022/09/06 08:34:08;;;;;;;11.20;8.90;;;23.40;99.90;;;;;;5133165;27;20043;-66
2022/09/06 08:36:35;;;;;;;9.45;8.10;;;23.60;99.90;;;;;;5132615;27;20043;-66
2022/09/06 08:39:03;;;;;;;8.43;7.50;;;23.80;99.90;;;;;;5131867;27;20164;-64
2022/09/06 08:41:50;;;;;;;7.40;6.70;;;23.90;99.90;;;;;;5132535;27;20054;-66
2022/09/06 08:44:19;;;;;;;7.82;7.07;;;24.10;99.90;;;;;;5132711;27;20381;-67
2022/09/06 08:46:58;;;;;;;8.20;7.40;;;24.20;99.90;;;;;;5132273;27;20103;-68
2022/09/06 08:49:28;;;;;;;8.63;7.03;;;24.30;99.90;;;;;;5132501;27;20050;-67
2022/09/06 08:52:30;;;;;;;8.38;6.28;;;24.40;99.90;;;;;;5132812;27;20043;-66
2022/09/06 08:55:28;;;;;;;9.25;6.85;;;24.40;99.60;;;;;;5132423;27;20041;-67
2022/09/06 08:58:26;;;;;;;7.15;5.97;;;24.60;99.10;;;;;;5132363;27;20043;-66
2022/09/06 09:00:57;;;;;;;7.88;5.93;;;24.60;99.00;;;;;;5033508;28;20045;-66
2022/09/06 09:03:35;;;;;;;6.38;5.78;;;24.60;98.70;;;;;;5032523;28;20049;-65
2022/09/06 09:06:04;;;;;;;7.80;5.45;;;24.80;98.80;;;;;;5033819;28;20060;-65
2022/09/06 09:08:32;;;;;;;6.82;5.50;;;25.00;98.90;;;;;;5033256;28;20051;-69
2022/09/06 09:11:06;;;;;;;7.32;6.43;;;25.20;98.60;;;;;;5033347;28;20037;-66
2022/09/06 09:13:34;;;;;;;6.03;5.43;;;25.20;97.90;;;;;;5049770;28;20041;-67
2022/09/06 09:16:00;;;;;;;7.05;6.25;;;25.40;98.00;;;;;;5016757;28;20118;-67
2022/09/06 09:18:32;;;;;;;8.82;6.68;;;25.70;97.80;;;;;;5032985;28;20522;-66
2022/09/06 09:20:58;;;;;;;6.22;5.63;;;25.90;97.40;;;;;;5049897;28;20115;-67
2022/09/06 09:23:24;;;;;;;5.32;4.82;;;25.90;97.30;;;;;;5033103;28;20439;-67
2022/09/06 09:25:52;;;;;;;6.28;5.38;;;26.10;97.20;;;;;;5032813;28;20045;-65
2022/09/06 09:28:23;;;;;;;6.40;5.80;;;26.30;96.70;;;;;;5049726;28;20045;-66
2022/09/06 09:30:52;;;;;;;8.23;5.50;;;26.30;96.20;;;;;;5049380;28;20045;-64
2022/09/06 09:33:34;;;;;;;10.52;6.63;;;26.30;95.80;;;;;;5033240;28;20041;-67
2022/09/06 09:36:11;;;;;;;7.07;6.00;;;26.20;95.70;;;;;;5049593;28;20033;-67
2022/09/06 09:38:51;;;;;;;9.32;5.65;;;26.20;95.50;;;;;;5112713;27;20062;-65
2022/09/06 09:41:27;;;;;;;9.52;5.30;;;26.30;95.70;;;;;;5114387;27;20366;-67
2022/09/06 09:44:00;;;;;;;7.18;5.75;;;26.50;96.00;;;;;;5131590;27;20533;-65
2022/09/06 09:46:31;;;;;;;9.63;5.70;;;26.70;95.60;;;;;;5131367;27;20462;-65
2022/09/06 09:49:10;;;;;;;9.05;4.80;;;26.70;95.30;;;;;;5131449;27;20126;-67
2022/09/06 09:51:42;;;;;;;9.48;5.20;;;26.90;94.80;;;;;;5131387;27;20051;-66
2022/09/06 09:54:13;;;;;;;5.22;4.63;;;27.10;95.00;;;;;;5132836;27;20042;-66
2022/09/06 09:56:52;;;;;;;9.75;5.07;;;27.40;95.10;;;;;;5131127;27;20049;-66
2022/09/06 09:59:36;;;;;;;6.18;5.22;;;27.70;94.80;;;;;;5131362;27;20425;-66
2022/09/06 10:02:21;;;;;;;7.22;5.75;;;27.90;94.00;;;;;;5132471;27;20042;-67
2022/09/06 10:04:50;;;;;;;6.97;5.30;;;27.80;93.70;;;;;;5130910;27;20046;-66
2022/09/06 10:07:19;;;;;;;7.57;6.47;;;27.90;93.80;;;;;;5131073;27;20050;-66
2022/09/06 10:10:00;;;;;;;8.15;5.82;;;28.00;93.80;;;;;;5130727;27;20040;-69
2022/09/06 10:12:38;;;;;;;7.68;5.75;;;28.20;93.30;;;;;;5131083;27;20412;-68
2022/09/06 10:15:05;;;;;;;8.25;6.55;;;28.40;93.60;;;;;;5132487;27;20031;-67
2022/09/06 10:17:48;;;;;;;6.70;5.35;;;28.40;93.00;;;;;;5130896;27;20062;-64
2022/09/06 10:20:15;;;;;;;6.15;4.60;;;28.60;93.40;;;;;;5130894;27;20050;-67
2022/09/06 10:23:05;;;;;;;6.25;5.50;;;28.60;92.70;;;;;;5130711;27;20036;-66
2022/09/06 10:25:45;;;;;;;5.95;5.38;;;28.90;91.80;;;;;;5131014;27;20035;-67
2022/09/06 10:28:21;;;;;;;6.20;5.13;;;29.10;92.80;;;;;;5130634;27;20082;-67
2022/09/06 10:31:05;;;;;;;5.25;4.75;;;29.20;92.10;;;;;;5130392;27;20083;-66
2022/09/06 10:33:33;;;;;;;6.45;5.75;;;29.30;91.10;;;;;;5130763;27;20081;-65
2022/09/06 10:36:01;;;;;;;6.65;6.05;;;29.20;91.30;;;;;;5130373;27;20443;-69
2022/09/06 10:38:59;;;;;;;6.40;5.30;;;29.30;91.10;;;;;;5130781;27;20517;-66
2022/09/06 10:41:41;;;;;;;9.57;5.22;;;29.50;91.50;;;;;;5031454;28;20045;-64
2022/09/06 10:44:36;;;;;;;5.90;5.18;;;29.70;91.20;;;;;;5030909;28;20049;-70
2022/09/06 10:47:13;;;;;;;4.82;3.88;;;30.10;91.20;;;;;;5031258;28;20052;-67
2022/09/06 10:49:44;;;;;;;6.97;4.75;;;30.20;90.00;;;;;;5031704;28;20048;-67
2022/09/06 10:52:16;;;;;;;6.50;5.15;;;30.20;89.90;;;;;;5031781;28;20060;-67
2022/09/06 10:54:46;;;;;;;6.85;5.40;;;30.30;89.80;;;;;;5015313;28;20045;-65
2022/09/06 10:57:24;;;;;;;6.25;5.30;;;30.20;88.70;;;;;;5031425;28;20047;-67
2022/09/06 10:59:57;;;;;;;7.55;6.82;;;30.00;88.60;;;;;;5031412;28;20045;-66
2022/09/06 11:02:49;;;;;;;9.73;6.30;;;29.70;88.90;;;;;;5034237;28;20051;-68
2022/09/06 11:05:24;;;;;;;7.78;4.80;;;29.70;90.00;;;;;;5030237;28;20051;-67
2022/09/06 11:07:59;;;;;;;9.18;5.85;;;29.90;90.50;;;;;;5054937;28;20449;-68
2022/09/06 11:10:37;;;;;;;6.55;5.55;;;30.10;90.30;;;;;;5038081;28;20043;-66
2022/09/06 11:13:10;;;;;;;7.97;6.63;;;30.20;90.30;;;;;;5054462;28;20045;-67
2022/09/06 11:15:49;;;;;;;8.85;7.03;;;30.20;89.60;;;;;;5038113;28;20045;-65
2022/09/06 11:18:19;;;;;;;7.40;6.60;;;30.20;89.30;;;;;;5068445;27;20587;-67
2022/09/06 11:21:03;;;;;;;8.68;5.60;;;30.30;90.00;;;;;;5137128;27;20066;-66
2022/09/06 11:23:52;;;;;;;7.70;6.80;;;30.10;89.50;;;;;;5136906;27;20035;-66
2022/09/06 11:26:25;;;;;;;7.28;5.68;;;29.90;90.00;;;;;;5136698;27;20039;-66
2022/09/06 11:28:56;;;;;;;7.65;5.68;;;29.90;89.60;;;;;;5137236;27;20543;-69
2022/09/06 11:31:25;;;;;;;6.43;5.45;;;29.60;88.30;;;;;;5136802;27;20078;-65
2022/09/06 11:34:19;;;;;;;7.45;4.95;;;29.40;88.50;;;;;;5138435;27;20038;-68
2022/09/06 11:36:56;;;;;;;6.63;5.07;;;29.10;89.20;;;;;;5138343;27;20043;-67
2022/09/06 11:39:38;;;;;;;6.57;4.53;;;29.00;89.70;;;;;;5137046;27;20091;-66
2022/09/06 11:42:08;;;;;;;5.47;4.00;;;29.20;90.20;;;;;;5136855;27;20376;-68
2022/09/06 11:44:56;;;;;;;5.27;4.40;;;29.50;89.70;;;;;;5137088;27;20042;-68
2022/09/06 11:47:42;;;;;;;5.72;3.70;;;29.60;88.40;;;;;;5136757;27;20401;-69
2022/09/06 11:50:20;;;;;;;4.50;2.83;;;29.60;87.60;;;;;;5136448;27;20043;-66
2022/09/06 11:53:13;;;;;;;3.35;2.88;;;29.50;87.20;;;;;;5137105;27;20034;-67
2022/09/06 11:55:58;;;;;;;5.18;2.90;;;29.30;86.60;;;;;;5136681;27;20062;-65
2022/09/06 11:58:52;;;;;;;3.15;2.35;;;29.20;86.60;;;;;;5136287;27;20122;-68
2022/09/06 12:01:19;;;;;;;6.25;3.17;;;29.10;87.20;;;;;;5054229;28;20096;-67
2022/09/06 12:03:47;;;;;;;5.25;3.10;;;29.10;86.80;;;;;;5037938;28;20060;-67
2022/09/06 12:06:24;;;;;;;4.35;2.55;;;29.00;85.90;;;;;;5037483;28;20136;-67
2022/09/06 12:08:52;;;;;;;3.28;2.80;;;29.00;86.30;;;;;;5037718;28;20552;-67
2022/09/06 12:11:33;;;;;;;3.92;2.65;;;28.80;85.90;;;;;;5054037;28;20392;-65
2022/09/06 12:14:31;;;;;;;3.45;2.42;;;28.60;85.60;;;;;;5051630;28;20495;-68
2022/09/06 12:16:56;;;;;;;3.22;1.92;;;28.50;86.80;;;;;;5046676;28;20041;-67
2022/09/06 12:19:45;;;;;;;3.95;2.33;;;28.40;86.30;;;;;;5033871;28;20049;-68
2022/09/06 12:22:28;;;;;;;3.25;2.13;;;28.40;86.80;;;;;;5051003;28;20124;-66
2022/09/06 12:25:15;;;;;;;2.83;2.08;;;28.30;87.10;;;;;;5034175;28;20084;-66
2022/09/06 12:27:51;;;;;;;3.70;2.22;;;28.30;85.90;;;;;;5034371;28;20041;-67
2022/09/06 12:30:36;;;;;;;3.47;2.03;;;28.20;86.00;;;;;;5050674;28;20049;-67
2022/09/06 12:33:30;;;;;;;4.03;2.03;;;28.20;87.00;;;;;;5034067;28;20059;-64
2022/09/06 12:36:32;;;;;;;5.82;2.30;;;28.30;87.50;;;;;;5033918;28;20064;-66
2022/09/06 12:39:07;;;;;;;4.60;2.07;;;28.60;86.80;;;;;;5052994;28;20087;-66
2022/09/06 12:41:38;;;;;;;5.50;2.28;;;28.50;86.60;;;;;;5073442;28;20156;-68
2022/09/06 12:44:06;;;;;;;6.50;2.05;;;28.50;87.10;;;;;;5073852;28;20032;-65
2022/09/06 12:46:33;;;;;;;5.32;2.47;;;28.60;86.30;;;;;;5073433;28;20083;-65
2022/09/06 12:49:08;;;;;;;4.28;2.47;;;28.50;85.60;;;;;;5073706;28;20083;-65
2022/09/06 12:51:37;;;;;;;5.88;2.70;;;28.30;85.20;;;;;;5073498;28;20063;-65
2022/09/06 12:54:05;;;;;;;4.68;2.33;;;28.20;85.50;;;;;;5090596;28;20056;-67
2022/09/06 12:56:33;;;;;;;2.83;2.13;;;28.20;85.60;;;;;;5073425;28;20032;-65
2022/09/06 12:59:23;;;;;;;5.90;2.28;;;28.10;85.60;;;;;;5090339;28;20044;-67
2022/09/06 13:01:55;;;;;;;6.45;2.65;;;28.10;86.80;;;;;;5090445;28;20121;-66
2022/09/06 13:04:24;;;;;;;;;;;28.10;86.40;;;;;;5074132;28;20486;-67